sensor_id;sensor_type;location;lat;lon;timestamp;pressure;altitude;pressure_sealevel;temperature;humidity
47913;BME280;33676;51.006;17.180;2023-07-31T00:01:12;99861.50;;;16.82;100.00
47913;BME280;33676;51.006;17.180;2023-07-31T00:03:41;99862.13;;;16.83;100.00
47913;BME280;33676;51.006;17.180;2023-07-31T00:06:09;99863.05;;;16.84;100.00
47913;BME280;33676;51.006;17.180;2023-07-31T00:08:38;99861.33;;;16.85;100.00
47913;BME280;33676;51.006;17.180;2023-07-31T00:11:06;99859.61;;;16.86;100.00
47913;BME280;33676;51.006;17.180;2023-07-31T00:13:35;99862.81;;;16.88;100.00
47913;BME280;33676;51.006;17.180;2023-07-31T00:16:03;99866.68;;;16.90;100.00
47913;BME280;33676;51.006;17.180;2023-07-31T00:18:32;99871.21;;;16.90;100.00
47913;BME280;33676;51.006;17.180;2023-07-31T00:21:00;99870.59;;;16.91;100.00
47913;BME280;33676;51.006;17.180;2023-07-31T00:23:29;99869.42;;;16.92;100.00
47913;BME280;33676;51.006;17.180;2023-07-31T00:25:57;99865.45;;;16.93;100.00
47913;BME280;33676;51.006;17.180;2023-07-31T00:28:26;99866.52;;;16.93;99.99
47913;BME280;33676;51.006;17.180;2023-07-31T00:30:55;99866.61;;;16.92;100.00
47913;BME280;33676;51.006;17.180;2023-07-31T00:33:24;99865.65;;;16.91;99.99
47913;BME280;33676;51.006;17.180;2023-07-31T00:35:53;99866.05;;;16.91;100.00
47913;BME280;33676;51.006;17.180;2023-07-31T00:38:21;99866.32;;;16.90;100.00
47913;BME280;33676;51.006;17.180;2023-07-31T00:40:49;99867.17;;;16.90;100.00
47913;BME280;33676;51.006;17.180;2023-07-31T00:43:18;99866.52;;;16.90;99.99
47913;BME280;33676;51.006;17.180;2023-07-31T00:45:47;99863.90;;;16.89;99.95
47913;BME280;33676;51.006;17.180;2023-07-31T00:48:16;99860.07;;;16.89;99.93
47913;BME280;33676;51.006;17.180;2023-07-31T00:50:44;99862.21;;;16.88;99.91
47913;BME280;33676;51.006;17.180;2023-07-31T00:53:13;99862.88;;;16.89;99.87
47913;BME280;33676;51.006;17.180;2023-07-31T00:55:43;99861.36;;;16.88;99.85
47913;BME280;33676;51.006;17.180;2023-07-31T00:58:12;99855.14;;;16.87;99.80
47913;BME280;33676;51.006;17.180;2023-07-31T01:00:41;99856.55;;;16.87;99.78
47913;BME280;33676;51.006;17.180;2023-07-31T01:03:10;99858.11;;;16.87;99.83
47913;BME280;33676;51.006;17.180;2023-07-31T01:08:54;99853.25;;;16.88;99.94
47913;BME280;33676;51.006;17.180;2023-07-31T01:11:29;99858.38;;;16.88;99.90
47913;BME280;33676;51.006;17.180;2023-07-31T01:13:59;99863.48;;;16.88;99.80
47913;BME280;33676;51.006;17.180;2023-07-31T01:16:27;99860.16;;;16.88;99.71
47913;BME280;33676;51.006;17.180;2023-07-31T01:18:56;99857.28;;;16.87;99.74
47913;BME280;33676;51.006;17.180;2023-07-31T01:21:54;99858.91;;;16.86;99.68
47913;BME280;33676;51.006;17.180;2023-07-31T01:30:48;99868.39;;;16.82;99.53
47913;BME280;33676;51.006;17.180;2023-07-31T01:33:17;99867.00;;;16.80;99.46
47913;BME280;33676;51.006;17.180;2023-07-31T01:35:47;99863.93;;;16.79;99.53
47913;BME280;33676;51.006;17.180;2023-07-31T01:38:20;99861.79;;;16.78;99.56
47913;BME280;33676;51.006;17.180;2023-07-31T01:40:53;99864.55;;;16.78;99.51
47913;BME280;33676;51.006;17.180;2023-07-31T01:43:21;99862.34;;;16.78;99.47
47913;BME280;33676;51.006;17.180;2023-07-31T01:45:50;99863.23;;;16.78;99.52
47913;BME280;33676;51.006;17.180;2023-07-31T01:48:18;99862.21;;;16.77;99.65
47913;BME280;33676;51.006;17.180;2023-07-31T01:50:47;99863.27;;;16.77;99.65
47913;BME280;33676;51.006;17.180;2023-07-31T01:53:15;99858.27;;;16.76;99.60
47913;BME280;33676;51.006;17.180;2023-07-31T01:55:44;99858.90;;;16.75;99.50
47913;BME280;33676;51.006;17.180;2023-07-31T01:58:12;99865.63;;;16.75;99.59
47913;BME280;33676;51.006;17.180;2023-07-31T02:00:41;99864.60;;;16.73;99.56
47913;BME280;33676;51.006;17.180;2023-07-31T02:03:09;99863.77;;;16.73;99.58
47913;BME280;33676;51.006;17.180;2023-07-31T02:05:49;99859.44;;;16.72;99.55
47913;BME280;33676;51.006;17.180;2023-07-31T02:08:17;99862.02;;;16.71;99.56
47913;BME280;33676;51.006;17.180;2023-07-31T02:10:46;99863.08;;;16.71;99.56
47913;BME280;33676;51.006;17.180;2023-07-31T02:13:15;99860.02;;;16.70;99.66
47913;BME280;33676;51.006;17.180;2023-07-31T02:15:45;99867.79;;;16.70;99.59
47913;BME280;33676;51.006;17.180;2023-07-31T02:18:14;99865.63;;;16.71;99.63
47913;BME280;33676;51.006;17.180;2023-07-31T02:20:43;99858.02;;;16.71;99.58
47913;BME280;33676;51.006;17.180;2023-07-31T02:23:11;99858.05;;;16.72;99.70
47913;BME280;33676;51.006;17.180;2023-07-31T02:25:40;99858.58;;;16.74;99.69
47913;BME280;33676;51.006;17.180;2023-07-31T02:28:08;99856.88;;;16.75;99.64
47913;BME280;33676;51.006;17.180;2023-07-31T02:30:37;99861.02;;;16.77;99.66
47913;BME280;33676;51.006;17.180;2023-07-31T02:33:05;99865.58;;;16.79;99.60
47913;BME280;33676;51.006;17.180;2023-07-31T02:35:34;99864.76;;;16.80;99.69
47913;BME280;33676;51.006;17.180;2023-07-31T02:38:02;99864.69;;;16.81;99.58
47913;BME280;33676;51.006;17.180;2023-07-31T02:40:30;99866.64;;;16.82;99.67
47913;BME280;33676;51.006;17.180;2023-07-31T02:42:59;99867.92;;;16.83;99.55
47913;BME280;33676;51.006;17.180;2023-07-31T02:45:27;99865.24;;;16.83;99.51
47913;BME280;33676;51.006;17.180;2023-07-31T02:47:55;99866.46;;;16.84;99.40
47913;BME280;33676;51.006;17.180;2023-07-31T02:50:24;99863.33;;;16.83;99.33
47913;BME280;33676;51.006;17.180;2023-07-31T02:52:53;99866.64;;;16.82;99.25
47913;BME280;33676;51.006;17.180;2023-07-31T02:55:21;99867.36;;;16.82;99.27
47913;BME280;33676;51.006;17.180;2023-07-31T02:57:49;99866.97;;;16.81;99.22
47913;BME280;33676;51.006;17.180;2023-07-31T03:00:20;99867.08;;;16.80;99.19
47913;BME280;33676;51.006;17.180;2023-07-31T03:02:48;99864.89;;;16.79;99.22
47913;BME280;33676;51.006;17.180;2023-07-31T03:05:17;99867.20;;;16.78;99.24
47913;BME280;33676;51.006;17.180;2023-07-31T03:07:45;99870.09;;;16.78;99.13
47913;BME280;33676;51.006;17.180;2023-07-31T03:10:14;99871.67;;;16.78;99.28
47913;BME280;33676;51.006;17.180;2023-07-31T03:12:43;99872.70;;;16.78;99.35
47913;BME280;33676;51.006;17.180;2023-07-31T03:15:14;99874.13;;;16.78;99.38
47913;BME280;33676;51.006;17.180;2023-07-31T03:17:42;99874.33;;;16.76;99.18
47913;BME280;33676;51.006;17.180;2023-07-31T03:20:11;99874.16;;;16.73;99.07
47913;BME280;33676;51.006;17.180;2023-07-31T03:22:39;99871.29;;;16.72;99.13
47913;BME280;33676;51.006;17.180;2023-07-31T03:25:08;99870.55;;;16.70;99.11
47913;BME280;33676;51.006;17.180;2023-07-31T03:27:38;99866.29;;;16.71;99.23
47913;BME280;33676;51.006;17.180;2023-07-31T03:30:07;99871.32;;;16.72;99.23
47913;BME280;33676;51.006;17.180;2023-07-31T03:32:36;99869.93;;;16.72;99.17
47913;BME280;33676;51.006;17.180;2023-07-31T03:35:29;99875.02;;;16.70;99.09
47913;BME280;33676;51.006;17.180;2023-07-31T03:37:58;99877.65;;;16.69;98.93
47913;BME280;33676;51.006;17.180;2023-07-31T03:40:26;99875.37;;;16.67;98.89
47913;BME280;33676;51.006;17.180;2023-07-31T03:42:55;99877.66;;;16.66;98.93
47913;BME280;33676;51.006;17.180;2023-07-31T03:45:23;99872.98;;;16.65;98.91
47913;BME280;33676;51.006;17.180;2023-07-31T03:47:51;99865.44;;;16.63;98.64
47913;BME280;33676;51.006;17.180;2023-07-31T03:50:20;99866.61;;;16.62;98.73
47913;BME280;33676;51.006;17.180;2023-07-31T03:52:49;99870.15;;;16.60;98.49
47913;BME280;33676;51.006;17.180;2023-07-31T03:55:17;99869.29;;;16.58;98.61
47913;BME280;33676;51.006;17.180;2023-07-31T03:57:46;99872.37;;;16.58;98.67
47913;BME280;33676;51.006;17.180;2023-07-31T04:00:14;99871.61;;;16.56;98.69
47913;BME280;33676;51.006;17.180;2023-07-31T04:02:43;99874.05;;;16.57;98.66
47913;BME280;33676;51.006;17.180;2023-07-31T04:05:12;99878.48;;;16.56;98.69
47913;BME280;33676;51.006;17.180;2023-07-31T04:07:41;99873.52;;;16.57;98.67
47913;BME280;33676;51.006;17.180;2023-07-31T04:10:09;99873.17;;;16.57;98.66
47913;BME280;33676;51.006;17.180;2023-07-31T04:12:40;99866.08;;;16.59;98.74
47913;BME280;33676;51.006;17.180;2023-07-31T04:15:09;99860.65;;;16.60;98.64
47913;BME280;33676;51.006;17.180;2023-07-31T04:17:38;99858.89;;;16.60;98.61
47913;BME280;33676;51.006;17.180;2023-07-31T04:20:07;99853.34;;;16.60;98.64
47913;BME280;33676;51.006;17.180;2023-07-31T04:22:35;99857.46;;;16.63;98.72
47913;BME280;33676;51.006;17.180;2023-07-31T04:25:04;99851.64;;;16.65;98.77
47913;BME280;33676;51.006;17.180;2023-07-31T04:27:32;99856.67;;;16.69;98.86
47913;BME280;33676;51.006;17.180;2023-07-31T04:30:01;99857.83;;;16.71;98.69
47913;BME280;33676;51.006;17.180;2023-07-31T04:32:29;99860.04;;;16.73;98.72
47913;BME280;33676;51.006;17.180;2023-07-31T04:34:58;99866.98;;;16.76;98.69
47913;BME280;33676;51.006;17.180;2023-07-31T04:37:26;99869.79;;;16.77;98.63
47913;BME280;33676;51.006;17.180;2023-07-31T04:39:54;99874.41;;;16.82;98.66
47913;BME280;33676;51.006;17.180;2023-07-31T04:42:23;99877.08;;;16.86;98.78
47913;BME280;33676;51.006;17.180;2023-07-31T04:44:51;99873.64;;;16.91;98.84
47913;BME280;33676;51.006;17.180;2023-07-31T04:47:21;99872.33;;;16.96;99.00
47913;BME280;33676;51.006;17.180;2023-07-31T04:49:49;99868.70;;;17.02;98.97
47913;BME280;33676;51.006;17.180;2023-07-31T04:52:17;99865.61;;;17.07;99.07
47913;BME280;33676;51.006;17.180;2023-07-31T04:54:46;99862.48;;;17.13;99.16
47913;BME280;33676;51.006;17.180;2023-07-31T04:57:14;99862.69;;;17.18;99.04
47913;BME280;33676;51.006;17.180;2023-07-31T04:59:43;99863.16;;;17.26;99.11
47913;BME280;33676;51.006;17.180;2023-07-31T05:02:12;99861.83;;;17.33;99.08
47913;BME280;33676;51.006;17.180;2023-07-31T05:04:41;99863.14;;;17.38;99.13
47913;BME280;33676;51.006;17.180;2023-07-31T05:07:09;99866.08;;;17.45;98.98
47913;BME280;33676;51.006;17.180;2023-07-31T05:09:38;99864.23;;;17.50;98.94
47913;BME280;33676;51.006;17.180;2023-07-31T05:12:08;99868.14;;;17.58;98.98
47913;BME280;33676;51.006;17.180;2023-07-31T05:14:36;99867.21;;;17.66;98.99
47913;BME280;33676;51.006;17.180;2023-07-31T05:17:05;99863.16;;;17.77;99.12
47913;BME280;33676;51.006;17.180;2023-07-31T05:19:33;99864.39;;;17.88;99.15
47913;BME280;33676;51.006;17.180;2023-07-31T05:22:02;99867.33;;;17.99;98.99
47913;BME280;33676;51.006;17.180;2023-07-31T05:24:31;99868.70;;;18.12;99.25
47913;BME280;33676;51.006;17.180;2023-07-31T05:30:00;99869.98;;;18.43;99.47
47913;BME280;33676;51.006;17.180;2023-07-31T05:32:29;99871.55;;;18.56;99.49
47913;BME280;33676;51.006;17.180;2023-07-31T05:34:57;99869.80;;;18.70;99.19
47913;BME280;33676;51.006;17.180;2023-07-31T05:37:26;99871.39;;;18.81;99.22
47913;BME280;33676;51.006;17.180;2023-07-31T05:39:54;99872.33;;;18.95;99.25
47913;BME280;33676;51.006;17.180;2023-07-31T05:42:23;99872.05;;;19.07;99.18
47913;BME280;33676;51.006;17.180;2023-07-31T05:44:51;99867.83;;;19.18;98.86
47913;BME280;33676;51.006;17.180;2023-07-31T05:47:20;99871.15;;;19.30;98.82
47913;BME280;33676;51.006;17.180;2023-07-31T05:49:49;99873.55;;;19.43;98.60
47913;BME280;33676;51.006;17.180;2023-07-31T05:52:19;99875.28;;;19.52;98.07
47913;BME280;33676;51.006;17.180;2023-07-31T05:54:48;99876.26;;;19.61;97.98
47913;BME280;33676;51.006;17.180;2023-07-31T05:57:41;99876.31;;;19.70;97.56
47913;BME280;33676;51.006;17.180;2023-07-31T06:00:13;99876.73;;;19.79;97.28
47913;BME280;33676;51.006;17.180;2023-07-31T06:02:42;99871.31;;;19.90;97.01
47913;BME280;33676;51.006;17.180;2023-07-31T06:05:10;99875.34;;;20.00;97.06
47913;BME280;33676;51.006;17.180;2023-07-31T06:07:39;99872.39;;;20.09;96.81
47913;BME280;33676;51.006;17.180;2023-07-31T06:10:07;99874.08;;;20.17;96.57
47913;BME280;33676;51.006;17.180;2023-07-31T06:12:36;99869.83;;;20.26;96.44
47913;BME280;33676;51.006;17.180;2023-07-31T06:15:05;99868.77;;;20.35;96.44
47913;BME280;33676;51.006;17.180;2023-07-31T06:17:34;99868.16;;;20.43;95.91
47913;BME280;33676;51.006;17.180;2023-07-31T06:20:02;99871.02;;;20.47;94.76
47913;BME280;33676;51.006;17.180;2023-07-31T06:22:33;99871.23;;;20.53;95.28
47913;BME280;33676;51.006;17.180;2023-07-31T06:25:01;99869.44;;;20.60;95.38
47913;BME280;33676;51.006;17.180;2023-07-31T06:27:30;99866.52;;;20.66;95.07
47913;BME280;33676;51.006;17.180;2023-07-31T06:29:58;99867.24;;;20.69;94.58
47913;BME280;33676;51.006;17.180;2023-07-31T06:32:26;99863.73;;;20.71;94.38
47913;BME280;33676;51.006;17.180;2023-07-31T06:34:55;99860.86;;;20.71;94.00
47913;BME280;33676;51.006;17.180;2023-07-31T06:37:23;99859.91;;;20.76;93.90
47913;BME280;33676;51.006;17.180;2023-07-31T06:39:52;99858.45;;;20.82;93.81
47913;BME280;33676;51.006;17.180;2023-07-31T06:42:21;99859.06;;;20.89;93.85
47913;BME280;33676;51.006;17.180;2023-07-31T06:44:50;99856.34;;;20.92;93.26
47913;BME280;33676;51.006;17.180;2023-07-31T06:47:18;99857.74;;;20.94;93.22
47913;BME280;33676;51.006;17.180;2023-07-31T06:49:46;99857.45;;;21.00;93.18
47913;BME280;33676;51.006;17.180;2023-07-31T06:52:15;99855.73;;;21.08;93.03
47913;BME280;33676;51.006;17.180;2023-07-31T06:54:43;99859.52;;;21.16;93.01
47913;BME280;33676;51.006;17.180;2023-07-31T06:57:11;99861.17;;;21.27;93.00
47913;BME280;33676;51.006;17.180;2023-07-31T06:59:40;99861.96;;;21.41;93.26
47913;BME280;33676;51.006;17.180;2023-07-31T07:02:08;99866.17;;;21.58;93.44
47913;BME280;33676;51.006;17.180;2023-07-31T07:04:37;99866.86;;;21.71;93.17
47913;BME280;33676;51.006;17.180;2023-07-31T07:07:05;99867.05;;;21.84;93.02
47913;BME280;33676;51.006;17.180;2023-07-31T07:09:33;99864.64;;;21.92;92.50
47913;BME280;33676;51.006;17.180;2023-07-31T07:12:02;99864.72;;;22.02;92.38
47913;BME280;33676;51.006;17.180;2023-07-31T07:14:30;99859.43;;;22.10;92.03
47913;BME280;33676;51.006;17.180;2023-07-31T07:16:59;99859.40;;;22.16;91.96
47913;BME280;33676;51.006;17.180;2023-07-31T07:19:27;99854.55;;;22.16;91.09
47913;BME280;33676;51.006;17.180;2023-07-31T07:21:56;99856.64;;;22.11;90.45
47913;BME280;33676;51.006;17.180;2023-07-31T07:24:24;99854.66;;;22.09;90.10
47913;BME280;33676;51.006;17.180;2023-07-31T07:26:53;99851.64;;;22.14;90.16
47913;BME280;33676;51.006;17.180;2023-07-31T07:29:21;99850.12;;;22.22;90.40
47913;BME280;33676;51.006;17.180;2023-07-31T07:31:50;99848.84;;;22.28;90.18
47913;BME280;33676;51.006;17.180;2023-07-31T07:34:18;99843.34;;;22.28;89.63
47913;BME280;33676;51.006;17.180;2023-07-31T07:36:46;99843.75;;;22.29;89.55
47913;BME280;33676;51.006;17.180;2023-07-31T07:39:17;99843.56;;;22.37;89.86
47913;BME280;33676;51.006;17.180;2023-07-31T07:41:50;99843.77;;;22.40;89.43
47913;BME280;33676;51.006;17.180;2023-07-31T07:44:22;99839.77;;;22.39;89.02
47913;BME280;33676;51.006;17.180;2023-07-31T07:46:57;99838.20;;;22.40;88.36
47913;BME280;33676;51.006;17.180;2023-07-31T07:49:26;99839.05;;;22.34;87.35
47913;BME280;33676;51.006;17.180;2023-07-31T07:51:54;99838.95;;;22.31;87.94
47913;BME280;33676;51.006;17.180;2023-07-31T07:54:23;99836.20;;;22.32;88.23
47913;BME280;33676;51.006;17.180;2023-07-31T07:56:51;99832.79;;;22.36;88.20
47913;BME280;33676;51.006;17.180;2023-07-31T07:59:20;99829.20;;;22.40;88.16
47913;BME280;33676;51.006;17.180;2023-07-31T08:01:48;99826.09;;;22.40;87.50
47913;BME280;33676;51.006;17.180;2023-07-31T08:04:19;99823.99;;;22.44;87.37
47913;BME280;33676;51.006;17.180;2023-07-31T08:06:51;99827.81;;;22.43;86.84
47913;BME280;33676;51.006;17.180;2023-07-31T08:09:19;99826.41;;;22.44;86.73
47913;BME280;33676;51.006;17.180;2023-07-31T08:11:48;99819.92;;;22.47;86.48
47913;BME280;33676;51.006;17.180;2023-07-31T08:14:16;99819.75;;;22.51;86.65
47913;BME280;33676;51.006;17.180;2023-07-31T08:16:44;99821.10;;;22.57;86.74
47913;BME280;33676;51.006;17.180;2023-07-31T08:19:14;99818.50;;;22.64;86.56
47913;BME280;33676;51.006;17.180;2023-07-31T08:21:42;99813.09;;;22.69;86.32
47913;BME280;33676;51.006;17.180;2023-07-31T08:24:11;99814.66;;;22.75;85.86
47913;BME280;33676;51.006;17.180;2023-07-31T08:26:39;99817.13;;;22.75;85.27
47913;BME280;33676;51.006;17.180;2023-07-31T08:29:10;99820.42;;;22.81;85.24
47913;BME280;33676;51.006;17.180;2023-07-31T08:31:38;99823.70;;;22.96;85.58
47913;BME280;33676;51.006;17.180;2023-07-31T08:34:06;99823.33;;;23.18;85.83
47913;BME280;33676;51.006;17.180;2023-07-31T08:36:35;99827.58;;;23.42;86.05
47913;BME280;33676;51.006;17.180;2023-07-31T08:39:03;99833.73;;;23.65;85.28
47913;BME280;33676;51.006;17.180;2023-07-31T08:41:38;99835.09;;;23.79;84.72
47913;BME280;33676;51.006;17.180;2023-07-31T08:44:10;99832.40;;;24.00;84.52
47913;BME280;33676;51.006;17.180;2023-07-31T08:46:40;99825.36;;;24.23;84.37
47913;BME280;33676;51.006;17.180;2023-07-31T08:49:10;99823.45;;;24.44;83.47
47913;BME280;33676;51.006;17.180;2023-07-31T08:51:40;99822.91;;;24.60;82.74
47913;BME280;33676;51.006;17.180;2023-07-31T08:54:09;99826.83;;;24.78;81.99
47913;BME280;33676;51.006;17.180;2023-07-31T08:56:39;99829.89;;;24.92;81.16
47913;BME280;33676;51.006;17.180;2023-07-31T08:59:09;99829.80;;;25.00;80.39
47913;BME280;33676;51.006;17.180;2023-07-31T09:01:44;99830.23;;;25.05;80.40
47913;BME280;33676;51.006;17.180;2023-07-31T09:04:19;99829.62;;;25.08;79.86
47913;BME280;33676;51.006;17.180;2023-07-31T09:06:48;99827.27;;;25.02;79.03
47913;BME280;33676;51.006;17.180;2023-07-31T09:09:17;99825.42;;;24.92;78.41
47913;BME280;33676;51.006;17.180;2023-07-31T09:11:46;99824.42;;;24.78;78.29
47913;BME280;33676;51.006;17.180;2023-07-31T09:14:15;99822.14;;;24.68;78.05
47913;BME280;33676;51.006;17.180;2023-07-31T09:16:58;99821.82;;;24.63;78.31
47913;BME280;33676;51.006;17.180;2023-07-31T09:19:35;99823.30;;;24.57;77.48
47913;BME280;33676;51.006;17.180;2023-07-31T09:22:07;99824.54;;;24.43;76.77
47913;BME280;33676;51.006;17.180;2023-07-31T09:24:35;99823.60;;;24.38;76.48
47913;BME280;33676;51.006;17.180;2023-07-31T09:27:06;99827.77;;;24.38;76.33
47913;BME280;33676;51.006;17.180;2023-07-31T09:29:34;99828.00;;;24.42;76.47
47913;BME280;33676;51.006;17.180;2023-07-31T09:32:03;99830.55;;;24.47;76.09
47913;BME280;33676;51.006;17.180;2023-07-31T09:34:38;99833.42;;;24.45;75.63
47913;BME280;33676;51.006;17.180;2023-07-31T09:37:11;99827.95;;;24.40;75.63
47913;BME280;33676;51.006;17.180;2023-07-31T09:39:47;99826.55;;;24.31;75.56
47913;BME280;33676;51.006;17.180;2023-07-31T09:42:25;99837.48;;;24.21;75.32
47913;BME280;33676;51.006;17.180;2023-07-31T09:45:06;99838.32;;;24.09;75.15
47913;BME280;33676;51.006;17.180;2023-07-31T09:47:36;99845.47;;;23.99;75.11
47913;BME280;33676;51.006;17.180;2023-07-31T09:50:07;99852.35;;;23.84;74.39
47913;BME280;33676;51.006;17.180;2023-07-31T09:52:38;99850.04;;;23.65;74.46
47913;BME280;33676;51.006;17.180;2023-07-31T09:55:09;99854.08;;;23.50;74.67
47913;BME280;33676;51.006;17.180;2023-07-31T09:57:46;99850.68;;;23.39;74.65
47913;BME280;33676;51.006;17.180;2023-07-31T10:00:17;99847.14;;;23.33;74.68
47913;BME280;33676;51.006;17.180;2023-07-31T10:02:51;99850.38;;;23.26;74.63
47913;BME280;33676;51.006;17.180;2023-07-31T10:05:22;99858.14;;;23.19;74.52
47913;BME280;33676;51.006;17.180;2023-07-31T10:07:54;99853.67;;;23.11;74.58
47913;BME280;33676;51.006;17.180;2023-07-31T10:10:24;99852.91;;;23.07;74.80
47913;BME280;33676;51.006;17.180;2023-07-31T10:12:56;99845.55;;;23.08;74.94
47913;BME280;33676;51.006;17.180;2023-07-31T10:15:26;99842.04;;;23.10;75.05
47913;BME280;33676;51.006;17.180;2023-07-31T10:17:55;99840.88;;;23.11;75.13
47913;BME280;33676;51.006;17.180;2023-07-31T10:20:26;99833.88;;;23.11;75.45
47913;BME280;33676;51.006;17.180;2023-07-31T10:22:56;99840.39;;;23.12;75.38
47913;BME280;33676;51.006;17.180;2023-07-31T10:25:28;99827.88;;;23.09;75.20
47913;BME280;33676;51.006;17.180;2023-07-31T10:27:57;99828.54;;;23.11;75.73
47913;BME280;33676;51.006;17.180;2023-07-31T10:30:32;99825.48;;;23.13;75.52
47913;BME280;33676;51.006;17.180;2023-07-31T10:33:01;99831.61;;;23.15;75.43
47913;BME280;33676;51.006;17.180;2023-07-31T10:35:31;99833.47;;;23.14;75.02
47913;BME280;33676;51.006;17.180;2023-07-31T10:38:10;99835.52;;;23.19;74.70
47913;BME280;33676;51.006;17.180;2023-07-31T10:40:42;99833.95;;;23.28;74.51
47913;BME280;33676;51.006;17.180;2023-07-31T10:43:23;99832.20;;;23.37;74.73
47913;BME280;33676;51.006;17.180;2023-07-31T10:45:56;99824.19;;;23.53;74.43
47913;BME280;33676;51.006;17.180;2023-07-31T10:48:33;99824.39;;;23.64;74.19
47913;BME280;33676;51.006;17.180;2023-07-31T10:51:07;99828.04;;;23.66;73.59
47913;BME280;33676;51.006;17.180;2023-07-31T10:53:36;99825.30;;;23.70;73.85
47913;BME280;33676;51.006;17.180;2023-07-31T10:56:08;99822.75;;;23.75;73.57
47913;BME280;33676;51.006;17.180;2023-07-31T10:58:37;99821.33;;;23.79;73.35
47913;BME280;33676;51.006;17.180;2023-07-31T11:01:06;99819.30;;;23.82;73.24
47913;BME280;33676;51.006;17.180;2023-07-31T11:03:47;99819.02;;;23.87;72.97
47913;BME280;33676;51.006;17.180;2023-07-31T11:06:22;99814.46;;;23.89;72.71
47913;BME280;33676;51.006;17.180;2023-07-31T11:08:51;99807.90;;;23.93;72.83
47913;BME280;33676;51.006;17.180;2023-07-31T11:11:20;99796.59;;;24.01;73.12
47913;BME280;33676;51.006;17.180;2023-07-31T11:13:51;99790.45;;;24.17;73.38
47913;BME280;33676;51.006;17.180;2023-07-31T11:16:25;99791.11;;;24.33;73.29
47913;BME280;33676;51.006;17.180;2023-07-31T11:18:53;99793.60;;;24.48;72.98
47913;BME280;33676;51.006;17.180;2023-07-31T11:21:24;99788.94;;;24.68;73.04
47913;BME280;33676;51.006;17.180;2023-07-31T11:23:57;99784.75;;;24.91;72.99
47913;BME280;33676;51.006;17.180;2023-07-31T11:26:28;99786.23;;;25.26;73.36
47913;BME280;33676;51.006;17.180;2023-07-31T11:28:59;99785.33;;;25.63;73.02
47913;BME280;33676;51.006;17.180;2023-07-31T11:31:27;99779.42;;;25.93;73.08
47913;BME280;33676;51.006;17.180;2023-07-31T11:34:06;99780.71;;;26.26;73.05
47913;BME280;33676;51.006;17.180;2023-07-31T11:36:35;99781.11;;;26.38;71.78
47913;BME280;33676;51.006;17.180;2023-07-31T11:39:10;99778.00;;;26.49;71.43
47913;BME280;33676;51.006;17.180;2023-07-31T11:41:42;99774.69;;;26.58;70.67
47913;BME280;33676;51.006;17.180;2023-07-31T11:44:11;99769.38;;;26.61;70.60
47913;BME280;33676;51.006;17.180;2023-07-31T11:46:53;99766.42;;;26.53;69.35
47913;BME280;33676;51.006;17.180;2023-07-31T11:49:25;99758.29;;;26.45;69.18
47913;BME280;33676;51.006;17.180;2023-07-31T11:51:54;99753.88;;;26.42;68.52
47913;BME280;33676;51.006;17.180;2023-07-31T11:54:23;99748.57;;;26.38;68.85
47913;BME280;33676;51.006;17.180;2023-07-31T11:56:55;99747.07;;;26.41;68.91
47913;BME280;33676;51.006;17.180;2023-07-31T11:59:26;99747.16;;;26.43;68.85
47913;BME280;33676;51.006;17.180;2023-07-31T12:01:56;99740.59;;;26.47;68.76
47913;BME280;33676;51.006;17.180;2023-07-31T12:04:26;99742.30;;;26.73;68.82
47913;BME280;33676;51.006;17.180;2023-07-31T12:06:55;99737.45;;;27.04;68.53
47913;BME280;33676;51.006;17.180;2023-07-31T12:09:26;99733.35;;;27.29;68.39
47913;BME280;33676;51.006;17.180;2023-07-31T12:11:55;99727.39;;;27.60;68.57
47913;BME280;33676;51.006;17.180;2023-07-31T12:14:25;99720.54;;;27.97;68.46
47913;BME280;33676;51.006;17.180;2023-07-31T12:17:01;99711.69;;;28.33;68.11
47913;BME280;33676;51.006;17.180;2023-07-31T12:19:32;99706.27;;;28.70;67.85
47913;BME280;33676;51.006;17.180;2023-07-31T12:22:12;99697.38;;;29.08;67.96
47913;BME280;33676;51.006;17.180;2023-07-31T12:24:43;99698.91;;;29.48;67.91
47913;BME280;33676;51.006;17.180;2023-07-31T12:27:15;99700.64;;;29.84;67.50
47913;BME280;33676;51.006;17.180;2023-07-31T12:29:44;99700.55;;;30.07;66.75
47913;BME280;33676;51.006;17.180;2023-07-31T12:32:23;99700.05;;;30.05;66.19
47913;BME280;33676;51.006;17.180;2023-07-31T12:35:00;99698.80;;;29.85;65.41
47913;BME280;33676;51.006;17.180;2023-07-31T12:37:29;99698.59;;;29.55;64.77
47913;BME280;33676;51.006;17.180;2023-07-31T12:39:58;99696.27;;;29.32;64.69
47913;BME280;33676;51.006;17.180;2023-07-31T12:42:36;99689.66;;;29.21;64.57
47913;BME280;33676;51.006;17.180;2023-07-31T12:45:05;99684.73;;;29.12;64.57
47913;BME280;33676;51.006;17.180;2023-07-31T12:47:33;99683.13;;;29.07;64.19
47913;BME280;33676;51.006;17.180;2023-07-31T12:50:01;99675.77;;;29.07;64.44
47913;BME280;33676;51.006;17.180;2023-07-31T12:52:30;99673.31;;;29.09;64.20
47913;BME280;33676;51.006;17.180;2023-07-31T12:54:58;99678.56;;;29.00;63.15
47913;BME280;33676;51.006;17.180;2023-07-31T12:57:27;99676.06;;;28.84;63.07
47913;BME280;33676;51.006;17.180;2023-07-31T12:59:55;99674.52;;;28.69;63.15
47913;BME280;33676;51.006;17.180;2023-07-31T13:02:23;99665.33;;;28.56;63.05
47913;BME280;33676;51.006;17.180;2023-07-31T13:04:53;99658.68;;;28.61;63.56
47913;BME280;33676;51.006;17.180;2023-07-31T13:07:22;99656.33;;;28.64;63.62
47913;BME280;33676;51.006;17.180;2023-07-31T13:09:51;99657.09;;;28.73;63.55
47913;BME280;33676;51.006;17.180;2023-07-31T13:12:19;99650.08;;;28.86;63.62
47913;BME280;33676;51.006;17.180;2023-07-31T13:14:47;99640.21;;;28.98;62.80
47913;BME280;33676;51.006;17.180;2023-07-31T13:17:19;99639.94;;;28.83;62.50